Oshawa Airport
CYOO : now visible

Airfield :











YOU CAN JOIN US ON...

 
LOGIN :

Register | Disclaimer

   EN    FR    IT 

 









Legend :    VFR   Marginal VFR   IFR   Intensive IFR   Very Intensive IFR
Visi :
Ceiling :
>= 8 km
>= 3000ft
5 to 8 km
1000 to 3000 ft
1500m to 5 km
500 to 1000 ft
800 to 1500m
200 to 500 ft
< 800m
< 200 ft
Symbols :   Thunderstorms  Fog  Heavy snow  Heavy precipitations  Wind > 20 kt






- Airport Elevation : 459 ft
- IATA code : YOO


CYOO - Oshawa

CURRENT METAR :
  • 212300Z AUTO 29014G26KT 9SM BKN076 09/M05 A2993 RMK SLP142

EXPIRED METARs :
  • 212200Z AUTO 28016G24KT 9SM BKN071 09/M05 A2992 RMK SLP138
  • 212100Z AUTO 26012G22KT 9SM OVC071 09/M04 A2991 RMK SLP136
  • 212000Z AUTO 26010G23KT 9SM OVC066 09/M04 A2992 RMK SLP138
  • 211900Z AUTO 25011G18KT 230V310 9SM OVC066 09/M05 A2993 RMK SLP141

TAF TAF CYOO
Valid from the 21 at 20:00 until the 22 at 08:00 UTC


211942Z 2120/2208 26012G22KT P6SM BKN060
FM220000 29010G20KT P6SM BKN050
BECMG 2200/2202 FEW040
FM220500 32005KT P6SM SKC RMK FCST BASED ON AUTO OBS. NXT FCST BY 220200Z
CZYZ FIR / North America



MET'MAP, your aeronautical weather chart ! - Copyright ORBIFLY December 2007 - Disclaimer

ORBIFLY MET'MAP TEAM :

Programming & Development : Alexandra Zaïnal
Original concept : Baudouin d'Aumeries
Technical & hardware support : Manuel Goepfert
Assistance : Marc-Olivier Méhu




SOURCES & CREDITS :

   NOAA       Earth
Advisory